createdAt,value
2019-01-03T09:21:28.101Z,28.07
2019-01-03T09:24:31.100Z,25.48
2019-01-03T09:27:22.030Z,29.72
2019-01-03T09:30:08.940Z,24.57
2019-01-03T09:32:47.208Z,27.42
2019-01-03T09:35:38.105Z,14.53
2019-01-03T09:38:25.411Z,16.65
2019-01-03T09:41:13.318Z,23.55
2019-01-03T09:43:59.930Z,24.90
2019-01-03T09:46:28.726Z,23.92
2019-01-03T09:48:57.514Z,20.37
2019-01-03T09:51:26.595Z,21.75
2019-01-03T09:53:55.388Z,13.98
2019-01-03T09:56:24.287Z,18.55
2019-01-03T09:58:53.338Z,16.20
2019-01-03T10:01:22.140Z,17.85
2019-01-03T10:03:51.014Z,11.35
2019-01-03T10:06:19.817Z,20.90
2019-01-03T10:08:48.609Z,30.37
2019-01-03T10:11:17.732Z,26.87
2019-01-03T10:13:46.515Z,15.28
2019-01-03T10:16:15.560Z,12.82
2019-01-03T10:18:44.391Z,12.05
2019-01-03T10:21:13.214Z,26.40
2019-01-03T10:23:42.005Z,12.15
2019-01-03T10:26:10.805Z,13.48
2019-01-03T10:28:39.814Z,17.27
2019-01-03T10:31:08.626Z,10.48
2019-01-03T10:33:37.433Z,14.95
2019-01-03T10:36:06.225Z,13.62
2019-01-03T10:38:35.309Z,11.22
2019-01-03T10:41:04.157Z,14.38
2019-01-03T10:43:33.049Z,10.78
2019-01-03T10:46:01.881Z,13.65
2019-01-03T10:48:30.681Z,17.60
2019-01-03T10:50:59.461Z,13.45
2019-01-03T10:53:28.329Z,16.27
2019-01-03T10:55:57.121Z,13.30
2019-01-03T10:58:25.929Z,15.25
2019-01-03T11:00:54.745Z,18.82
2019-01-03T11:03:23.889Z,13.50
2019-01-03T11:05:53.048Z,13.45
2019-01-03T11:08:21.881Z,14.18
2019-01-03T11:10:50.670Z,10.03
2019-01-03T11:13:19.529Z,12.95
2019-01-03T11:15:48.345Z,13.80
2019-01-03T11:18:17.140Z,13.05
2019-01-03T11:20:46.190Z,12.30
2019-01-03T11:23:14.993Z,18.48
2019-01-03T11:25:43.780Z,10.25
2019-01-03T11:28:12.832Z,17.02
2019-01-03T11:30:41.616Z,14.07
2019-01-03T11:33:10.672Z,10.88
2019-01-03T11:35:39.485Z,13.00
2019-01-03T11:38:08.541Z,15.23
2019-01-03T11:40:37.575Z,15.00
2019-01-03T11:43:06.474Z,10.70
2019-01-03T11:45:35.268Z,16.12
2019-01-03T11:48:04.153Z,12.10
2019-01-03T11:50:33.198Z,17.50
2019-01-03T11:53:02.028Z,12.65
2019-01-03T11:55:30.815Z,12.18
2019-01-03T11:57:59.611Z,11.90
2019-01-03T12:00:28.625Z,9.68
2019-01-03T12:02:57.437Z,13.60
2019-01-03T12:05:26.449Z,14.05
2019-01-03T12:07:55.462Z,11.68
2019-01-03T12:10:24.258Z,11.80
2019-01-03T12:12:53.110Z,16.87
2019-01-03T12:15:22.134Z,15.38
2019-01-03T12:17:50.928Z,9.75
2019-01-03T12:20:19.777Z,16.97
2019-01-03T12:22:48.796Z,11.95
2019-01-03T12:25:17.858Z,18.32
2019-01-03T12:27:46.633Z,13.48
2019-01-03T12:30:15.735Z,20.05
2019-01-03T12:32:44.761Z,11.50
2019-01-03T12:35:13.556Z,21.73
2019-01-03T12:37:42.592Z,11.83
2019-01-03T12:40:11.654Z,15.20
2019-01-03T12:42:40.446Z,15.10
2019-01-03T12:45:09.525Z,15.88
2019-01-03T12:47:38.565Z,14.30
2019-01-03T12:50:10.593Z,10.95
2019-01-03T12:52:39.596Z,14.23
2019-01-03T12:55:08.453Z,14.58
2019-01-03T12:57:37.318Z,19.45
2019-01-03T13:00:09.217Z,19.75
2019-01-03T13:02:37.995Z,19.07
2019-01-03T13:05:06.985Z,15.20
2019-01-03T13:07:35.994Z,16.70
2019-01-03T13:10:05.109Z,16.20
2019-01-03T13:12:33.911Z,26.23
2019-01-03T13:15:02.712Z,34.78
2019-01-03T13:17:31.773Z,26.62
2019-01-03T13:20:00.801Z,11.00
2019-01-03T13:22:29.564Z,28.52
2019-01-03T13:24:58.373Z,37.10
2019-01-03T13:27:27.406Z,34.23
2019-01-03T13:29:56.213Z,27.80
2019-01-03T13:32:25.061Z,32.13
2019-01-03T13:34:53.858Z,16.70
2019-01-03T13:37:22.634Z,15.65
2019-01-03T13:39:51.432Z,16.52
2019-01-03T13:42:20.293Z,23.00
2019-01-03T13:44:49.096Z,13.60
2019-01-03T13:47:17.873Z,12.10
2019-01-03T13:49:46.663Z,18.92
2019-01-03T13:52:15.680Z,15.55
2019-01-03T13:54:45.051Z,11.95
2019-01-03T13:57:13.829Z,16.70
2019-01-03T13:59:42.680Z,16.05
2019-01-03T14:02:11.462Z,19.32
2019-01-03T14:04:40.252Z,15.83
2019-01-03T14:07:09.029Z,18.52
2019-01-03T14:09:37.832Z,12.50
2019-01-03T14:12:06.782Z,24.10
2019-01-03T14:14:35.551Z,12.35
2019-01-03T14:17:04.417Z,12.95
2019-01-03T14:19:33.453Z,14.03
2019-01-03T14:22:02.563Z,12.10
2019-01-03T14:24:31.569Z,14.78
2019-01-03T14:27:00.435Z,12.13
2019-01-03T14:29:29.197Z,15.78
2019-01-03T14:31:57.996Z,38.90
2019-01-03T14:34:26.765Z,17.67
2019-01-03T14:36:55.555Z,19.32
2019-01-03T14:39:24.344Z,16.23
2019-01-03T14:41:53.383Z,20.95
2019-01-03T14:44:22.168Z,15.75
2019-01-03T14:46:51.449Z,20.08
2019-01-03T14:49:20.365Z,15.50
2019-01-03T14:51:49.217Z,14.07
2019-01-03T14:54:18.067Z,12.35
2019-01-03T14:56:46.924Z,21.77
2019-01-03T14:59:15.965Z,20.50
2019-01-03T15:01:44.856Z,16.45
2019-01-03T15:04:14.144Z,12.90
2019-01-03T15:06:43.257Z,13.13
2019-01-03T15:09:12.284Z,9.53
2019-01-03T15:11:41.127Z,12.53
2019-01-03T15:14:10.330Z,17.48
2019-01-03T15:16:39.783Z,18.35
2019-01-03T15:19:08.827Z,11.18
2019-01-03T15:21:37.628Z,11.00
2019-01-03T15:24:06.419Z,10.75
2019-01-03T15:26:37.494Z,18.98
2019-01-03T15:29:06.404Z,22.55
2019-01-03T15:31:38.124Z,16.80
2019-01-03T15:34:06.944Z,13.18
2019-01-03T15:36:36.089Z,14.13
2019-01-03T15:39:05.840Z,12.60
2019-01-03T15:41:34.831Z,14.30
2019-01-03T15:44:03.757Z,18.90
2019-01-03T15:46:32.560Z,16.60
2019-01-03T15:49:01.340Z,16.87
2019-01-03T15:51:30.395Z,22.17
2019-01-03T15:53:59.153Z,15.15
2019-01-03T15:56:27.932Z,14.73
2019-01-03T15:58:56.798Z,15.03
2019-01-03T16:01:25.656Z,20.72
2019-01-03T16:03:54.523Z,14.58
2019-01-03T16:06:23.380Z,20.20
2019-01-03T16:08:52.793Z,14.65
2019-01-03T16:11:21.620Z,15.98
2019-01-03T16:13:50.421Z,13.93
2019-01-03T16:16:19.217Z,18.65
2019-01-03T16:18:48.235Z,14.68
2019-01-03T16:21:17.010Z,20.20
2019-01-03T16:23:45.790Z,20.02
2019-01-03T16:26:14.568Z,17.23
2019-01-03T16:28:43.350Z,16.57
2019-01-03T16:31:12.141Z,18.23
2019-01-03T16:33:41.163Z,20.08
2019-01-03T16:36:09.946Z,20.10
2019-01-03T16:38:38.732Z,20.90
2019-01-03T16:41:07.593Z,30.57
2019-01-03T16:43:36.397Z,22.67
2019-01-03T16:46:05.539Z,20.57
2019-01-03T16:48:34.308Z,20.65
2019-01-03T16:51:03.432Z,21.57
2019-01-03T16:53:32.213Z,21.57
2019-01-03T16:56:01.013Z,18.57
2019-01-03T16:58:30.031Z,19.25
2019-01-03T17:00:58.848Z,20.80
2019-01-03T17:03:27.872Z,18.02
2019-01-03T17:05:56.657Z,19.15
2019-01-03T17:08:25.965Z,19.48
2019-01-03T17:10:54.750Z,15.98
2019-01-03T17:13:23.536Z,22.17
2019-01-03T17:15:52.458Z,22.52
2019-01-03T17:18:21.257Z,16.42
2019-01-03T17:20:50.107Z,23.50
2019-01-03T17:23:19.190Z,16.40
2019-01-03T17:25:47.955Z,20.95
2019-01-03T17:28:16.766Z,17.85
2019-01-03T17:30:45.574Z,20.82
2019-01-03T17:33:14.645Z,20.62
2019-01-03T17:35:43.417Z,16.90
2019-01-03T17:38:12.278Z,24.50
2019-01-03T17:40:41.097Z,22.40
2019-01-03T17:43:09.900Z,21.90
2019-01-03T17:45:38.677Z,22.52
2019-01-03T17:48:07.680Z,22.40
2019-01-03T17:50:36.540Z,27.87
2019-01-03T17:53:05.453Z,23.40
2019-01-03T17:55:34.497Z,30.80
2019-01-03T17:58:03.285Z,21.97
2019-01-03T18:00:32.709Z,18.17
2019-01-03T18:03:02.009Z,22.80
2019-01-03T18:05:30.919Z,20.48
2019-01-03T18:07:59.740Z,25.95
2019-01-03T18:10:28.898Z,26.37
2019-01-03T18:12:57.676Z,24.85
2019-01-03T18:15:26.456Z,26.77
2019-01-03T18:17:55.262Z,30.75
2019-01-03T18:20:24.121Z,22.70
2019-01-03T18:22:53.196Z,22.02
2019-01-03T18:25:22.038Z,46.75
2019-01-03T18:27:50.897Z,26.35
2019-01-03T18:30:19.689Z,25.65
2019-01-03T18:32:48.469Z,35.92
2019-01-03T18:35:17.254Z,26.65
2019-01-03T18:37:46.105Z,24.77
2019-01-03T18:40:16.423Z,25.85
2019-01-03T18:42:45.634Z,21.30
2019-01-03T18:45:17.841Z,22.70
2019-01-03T18:47:46.918Z,25.92
2019-01-03T18:50:18.901Z,33.48
2019-01-03T18:52:46.181Z,33.88
2019-01-03T18:55:14.968Z,28.75
2019-01-03T18:57:43.800Z,26.42
2019-01-03T19:00:12.912Z,40.08
2019-01-03T19:02:41.761Z,28.95
2019-01-03T19:05:10.907Z,30.23
2019-01-03T19:07:39.698Z,26.17
2019-01-03T19:10:10.210Z,26.80
2019-01-03T19:12:38.952Z,23.52
2019-01-03T19:15:08.717Z,28.60
2019-01-03T19:17:37.568Z,26.93
2019-01-03T19:20:08.838Z,25.23
2019-01-03T19:22:37.689Z,35.95
2019-01-03T19:25:09.409Z,32.53
2019-01-03T19:27:38.172Z,27.60
2019-01-03T19:30:08.169Z,27.10
2019-01-03T19:32:37.189Z,23.83
2019-01-03T19:35:07.548Z,26.27
2019-01-03T19:37:36.417Z,31.75
2019-01-03T19:40:06.268Z,30.43
2019-01-03T19:42:35.325Z,29.92
2019-01-03T19:45:04.593Z,35.90
2019-01-03T19:47:33.362Z,31.65
2019-01-03T19:50:02.400Z,33.90
2019-01-03T19:52:31.180Z,20.48
2019-01-03T19:54:59.989Z,29.02
2019-01-03T19:57:28.772Z,31.45
2019-01-03T19:59:57.561Z,25.60
2019-01-03T20:02:26.325Z,27.90
2019-01-03T20:04:55.341Z,26.27
2019-01-03T20:07:24.232Z,35.35
2019-01-03T20:09:53.274Z,33.40
2019-01-03T20:12:22.073Z,35.08
2019-01-03T20:14:50.857Z,31.68
2019-01-03T20:17:19.633Z,37.35
2019-01-03T20:19:48.504Z,32.85
2019-01-03T20:22:17.302Z,32.63
2019-01-03T20:24:46.292Z,39.30
2019-01-03T20:27:15.161Z,26.25
2019-01-03T20:29:44.176Z,33.23
2019-01-03T20:32:12.976Z,32.98
2019-01-03T20:34:41.831Z,31.50
2019-01-03T20:37:10.684Z,32.67
2019-01-03T20:39:39.458Z,35.65
2019-01-03T20:42:08.229Z,38.38
2019-01-03T20:44:37.084Z,33.00
2019-01-03T20:47:05.880Z,31.87
2019-01-03T20:49:35.398Z,36.83
2019-01-03T20:52:04.295Z,31.15
2019-01-03T20:54:33.493Z,35.58
2019-01-03T20:57:02.291Z,35.65
2019-01-03T20:59:32.030Z,35.00
2019-01-03T21:02:02.960Z,38.55
2019-01-03T21:04:32.005Z,34.80
2019-01-03T21:07:00.884Z,32.33
2019-01-03T21:09:29.664Z,38.35
2019-01-03T21:11:58.589Z,39.73
2019-01-03T21:14:27.439Z,34.58
2019-01-03T21:16:56.297Z,37.45
2019-01-03T21:19:27.941Z,34.70
2019-01-03T21:21:56.829Z,37.33
2019-01-03T21:24:25.685Z,31.80
2019-01-03T21:26:54.565Z,36.83
2019-01-03T21:29:23.669Z,27.40
2019-01-03T21:31:52.723Z,27.95
2019-01-03T21:34:21.679Z,30.55
2019-01-03T21:36:50.644Z,28.73
2019-01-03T21:39:19.708Z,42.75
2019-01-03T21:41:48.513Z,31.42
2019-01-03T21:44:17.298Z,35.05
2019-01-03T21:46:46.196Z,29.63
2019-01-03T21:49:15.049Z,32.95
2019-01-03T21:51:43.860Z,32.35
2019-01-03T21:54:12.717Z,29.85
2019-01-03T21:56:41.917Z,26.95
2019-01-03T21:59:10.783Z,25.35
2019-01-03T22:01:39.623Z,26.97
2019-01-03T22:04:08.544Z,28.65
2019-01-03T22:06:37.345Z,29.90
2019-01-03T22:09:06.441Z,30.60
2019-01-03T22:11:35.489Z,31.57
2019-01-03T22:14:04.337Z,27.27
2019-01-03T22:16:33.190Z,25.95
2019-01-03T22:19:01.962Z,21.65
2019-01-03T22:21:30.734Z,28.55
2019-01-03T22:23:59.509Z,31.85
2019-01-03T22:26:28.286Z,30.10
2019-01-03T22:28:57.060Z,27.37
2019-01-03T22:31:26.085Z,25.68
2019-01-03T22:33:54.964Z,32.05
2019-01-03T22:36:24.030Z,28.20
2019-01-03T22:38:53.645Z,30.80
2019-01-03T22:41:22.678Z,24.20
2019-01-03T22:43:51.464Z,26.25
2019-01-03T22:46:20.245Z,31.82
2019-01-03T22:48:49.099Z,25.62
2019-01-03T22:51:20.146Z,29.23
2019-01-03T22:53:48.391Z,26.07
2019-01-03T22:56:17.161Z,24.50
2019-01-03T22:58:46.203Z,27.37
2019-01-03T23:01:15.129Z,31.48
2019-01-03T23:03:44.158Z,22.85
2019-01-03T23:06:13.185Z,26.85
2019-01-03T23:08:41.981Z,23.40
2019-01-03T23:11:11.024Z,23.20
2019-01-03T23:13:40.110Z,23.67
2019-01-03T23:16:08.881Z,24.12
2019-01-03T23:18:37.661Z,30.82
2019-01-03T23:21:06.450Z,59.38
2019-01-03T23:23:35.230Z,56.25
2019-01-03T23:26:07.132Z,53.25
2019-01-03T23:28:35.941Z,45.70
2019-01-03T23:31:04.853Z,41.42
2019-01-03T23:33:33.637Z,40.45
2019-01-03T23:36:02.668Z,50.88
2019-01-03T23:38:31.445Z,42.93
2019-01-03T23:41:00.221Z,42.30
2019-01-03T23:43:28.993Z,38.70
2019-01-03T23:45:57.866Z,45.33
2019-01-03T23:48:26.917Z,38.38
2019-01-03T23:50:55.785Z,47.58
2019-01-03T23:53:24.581Z,49.60
2019-01-03T23:55:56.812Z,39.48
2019-01-03T23:58:25.752Z,39.03
